sensor_id;sensor_type;location;lat;lon;timestamp;pressure;altitude;pressure_sealevel;temperature;humidity
7264;BME280;3673;52.480;13.348;2023-02-15T00:02:02;102788.25;;;10.01;54.79
7264;BME280;3673;52.480;13.348;2023-02-15T00:04:32;102785.78;;;10.06;54.11
7264;BME280;3673;52.480;13.348;2023-02-15T00:07:17;102780.09;;;9.92;54.69
7264;BME280;3673;52.480;13.348;2023-02-15T00:09:45;102791.09;;;10.07;54.40
7264;BME280;3673;52.480;13.348;2023-02-15T00:12:15;102783.88;;;10.00;54.26
7264;BME280;3673;52.480;13.348;2023-02-15T00:14:42;102779.63;;;10.04;54.34
7264;BME280;3673;52.480;13.348;2023-02-15T00:17:09;102783.69;;;10.19;53.77
7264;BME280;3673;52.480;13.348;2023-02-15T00:19:36;102765.41;;;10.21;53.53
7264;BME280;3673;52.480;13.348;2023-02-15T00:22:09;102772.41;;;10.22;53.67
7264;BME280;3673;52.480;13.348;2023-02-15T00:24:40;102750.59;;;10.21;53.40
7264;BME280;3673;52.480;13.348;2023-02-15T00:27:07;102760.16;;;9.96;54.34
7264;BME280;3673;52.480;13.348;2023-02-15T00:35:26;102766.31;;;9.98;54.07
7264;BME280;3673;52.480;13.348;2023-02-15T00:38:11;102752.06;;;9.88;54.69
7264;BME280;3673;52.480;13.348;2023-02-15T00:40:54;102762.22;;;10.29;53.54
7264;BME280;3673;52.480;13.348;2023-02-15T00:43:39;102753.19;;;10.20;53.20
7264;BME280;3673;52.480;13.348;2023-02-15T00:46:20;102746.97;;;10.16;53.26
7264;BME280;3673;52.480;13.348;2023-02-15T00:52:30;102757.22;;;10.12;53.91
7264;BME280;3673;52.480;13.348;2023-02-15T00:55:11;102765.66;;;10.03;53.89
7264;BME280;3673;52.480;13.348;2023-02-15T00:57:38;102741.69;;;9.91;53.68
7264;BME280;3673;52.480;13.348;2023-02-15T01:00:14;102762.44;;;10.10;53.70
7264;BME280;3673;52.480;13.348;2023-02-15T01:02:43;102733.75;;;9.88;54.31
7264;BME280;3673;52.480;13.348;2023-02-15T01:05:12;102752.44;;;9.99;53.71
7264;BME280;3673;52.480;13.348;2023-02-15T01:07:58;102748.91;;;9.98;53.96
7264;BME280;3673;52.480;13.348;2023-02-15T01:10:29;102749.19;;;10.06;53.92
7264;BME280;3673;52.480;13.348;2023-02-15T01:13:02;102739.13;;;10.16;53.56
7264;BME280;3673;52.480;13.348;2023-02-15T01:15:35;102741.97;;;9.99;53.54
7264;BME280;3673;52.480;13.348;2023-02-15T01:18:16;102723.72;;;9.75;54.71
7264;BME280;3673;52.480;13.348;2023-02-15T01:20:49;102737.00;;;9.81;54.62
7264;BME280;3673;52.480;13.348;2023-02-15T01:23:19;102742.72;;;9.69;54.75
7264;BME280;3673;52.480;13.348;2023-02-15T01:25:53;102732.28;;;9.71;55.01
7264;BME280;3673;52.480;13.348;2023-02-15T01:28:22;102719.75;;;9.61;54.66
7264;BME280;3673;52.480;13.348;2023-02-15T01:30:50;102711.44;;;9.47;54.52
7264;BME280;3673;52.480;13.348;2023-02-15T01:33:22;102716.72;;;9.49;54.98
7264;BME280;3673;52.480;13.348;2023-02-15T01:35:49;102713.19;;;9.48;55.06
7264;BME280;3673;52.480;13.348;2023-02-15T01:38:28;102703.25;;;9.38;55.04
7264;BME280;3673;52.480;13.348;2023-02-15T01:40:55;102701.50;;;9.37;55.29
7264;BME280;3673;52.480;13.348;2023-02-15T01:43:47;102705.84;;;9.37;55.37
7264;BME280;3673;52.480;13.348;2023-02-15T01:46:17;102696.63;;;9.48;55.18
7264;BME280;3673;52.480;13.348;2023-02-15T01:48:48;102707.19;;;9.51;54.95
7264;BME280;3673;52.480;13.348;2023-02-15T01:51:20;102707.84;;;9.44;55.12
7264;BME280;3673;52.480;13.348;2023-02-15T01:53:53;102682.13;;;9.30;55.25
7264;BME280;3673;52.480;13.348;2023-02-15T01:56:27;102670.31;;;9.18;55.55
7264;BME280;3673;52.480;13.348;2023-02-15T01:58:58;102670.59;;;9.25;55.69
7264;BME280;3673;52.480;13.348;2023-02-15T02:01:27;102669.47;;;9.43;54.84
7264;BME280;3673;52.480;13.348;2023-02-15T02:04:00;102684.88;;;9.35;55.25
7264;BME280;3673;52.480;13.348;2023-02-15T02:06:31;102673.59;;;9.36;55.35
7264;BME280;3673;52.480;13.348;2023-02-15T02:09:02;102661.38;;;9.35;55.30
7264;BME280;3673;52.480;13.348;2023-02-15T02:11:29;102661.53;;;9.40;55.18
7264;BME280;3673;52.480;13.348;2023-02-15T02:13:57;102665.19;;;9.45;55.50
7264;BME280;3673;52.480;13.348;2023-02-15T02:16:30;102662.59;;;9.21;55.18
7264;BME280;3673;52.480;13.348;2023-02-15T02:19:48;102676.91;;;9.30;55.68
7264;BME280;3673;52.480;13.348;2023-02-15T02:22:44;102658.16;;;9.18;55.59
7264;BME280;3673;52.480;13.348;2023-02-15T02:25:44;102670.50;;;9.22;55.67
7264;BME280;3673;52.480;13.348;2023-02-15T02:28:54;102665.69;;;9.09;55.74
7264;BME280;3673;52.480;13.348;2023-02-15T02:31:53;102668.47;;;9.14;55.60
7264;BME280;3673;52.480;13.348;2023-02-15T02:34:35;102643.50;;;8.98;55.85
7264;BME280;3673;52.480;13.348;2023-02-15T02:37:16;102647.84;;;8.98;55.96
7264;BME280;3673;52.480;13.348;2023-02-15T02:39:54;102652.31;;;9.00;55.66
7264;BME280;3673;52.480;13.348;2023-02-15T02:42:35;102644.72;;;8.84;56.11
7264;BME280;3673;52.480;13.348;2023-02-15T02:45:24;102657.78;;;8.84;56.39
7264;BME280;3673;52.480;13.348;2023-02-15T02:47:58;102625.13;;;8.71;56.48
7264;BME280;3673;52.480;13.348;2023-02-15T02:50:32;102637.34;;;8.72;56.58
7264;BME280;3673;52.480;13.348;2023-02-15T02:53:01;102648.91;;;8.79;56.25
7264;BME280;3673;52.480;13.348;2023-02-15T02:55:34;102637.28;;;8.71;56.57
7264;BME280;3673;52.480;13.348;2023-02-15T02:58:14;102621.75;;;8.50;57.45
7264;BME280;3673;52.480;13.348;2023-02-15T03:00:49;102640.75;;;8.70;56.75
7264;BME280;3673;52.480;13.348;2023-02-15T03:03:23;102645.59;;;8.61;56.86
7264;BME280;3673;52.480;13.348;2023-02-15T03:05:57;102635.91;;;8.57;56.87
7264;BME280;3673;52.480;13.348;2023-02-15T03:08:32;102621.00;;;8.54;56.74
7264;BME280;3673;52.480;13.348;2023-02-15T03:11:04;102618.22;;;8.50;56.94
7264;BME280;3673;52.480;13.348;2023-02-15T03:13:32;102627.59;;;8.67;56.73
7264;BME280;3673;52.480;13.348;2023-02-15T03:16:01;102629.91;;;8.59;56.37
7264;BME280;3673;52.480;13.348;2023-02-15T03:18:50;102615.75;;;8.53;56.09
7264;BME280;3673;52.480;13.348;2023-02-15T03:21:32;102607.50;;;8.42;56.16
7264;BME280;3673;52.480;13.348;2023-02-15T03:24:06;102624.59;;;8.58;55.86
7264;BME280;3673;52.480;13.348;2023-02-15T03:26:36;102602.97;;;8.37;56.02
7264;BME280;3673;52.480;13.348;2023-02-15T03:29:06;102627.47;;;8.42;55.83
7264;BME280;3673;52.480;13.348;2023-02-15T03:31:40;102619.63;;;8.40;55.78
7264;BME280;3673;52.480;13.348;2023-02-15T03:34:13;102608.06;;;8.34;55.87
7264;BME280;3673;52.480;13.348;2023-02-15T03:36:55;102611.22;;;8.26;55.90
7264;BME280;3673;52.480;13.348;2023-02-15T03:39:33;102607.19;;;8.12;55.88
7264;BME280;3673;52.480;13.348;2023-02-15T03:42:10;102607.13;;;8.11;56.34
7264;BME280;3673;52.480;13.348;2023-02-15T03:44:58;102611.63;;;8.15;56.41
7264;BME280;3673;52.480;13.348;2023-02-15T03:47:30;102599.84;;;8.02;56.74
7264;BME280;3673;52.480;13.348;2023-02-15T03:50:02;102615.41;;;8.01;56.97
7264;BME280;3673;52.480;13.348;2023-02-15T03:52:56;102609.91;;;8.15;56.17
7264;BME280;3673;52.480;13.348;2023-02-15T03:55:27;102615.78;;;8.10;56.68
7264;BME280;3673;52.480;13.348;2023-02-15T03:57:56;102603.16;;;8.20;56.63
7264;BME280;3673;52.480;13.348;2023-02-15T04:00:57;102596.66;;;8.09;56.32
7264;BME280;3673;52.480;13.348;2023-02-15T04:03:45;102598.47;;;8.12;56.42
7264;BME280;3673;52.480;13.348;2023-02-15T04:06:18;102601.03;;;8.10;56.68
7264;BME280;3673;52.480;13.348;2023-02-15T04:08:47;102593.97;;;8.08;56.40
7264;BME280;3673;52.480;13.348;2023-02-15T04:11:31;102605.41;;;8.11;55.75
7264;BME280;3673;52.480;13.348;2023-02-15T04:13:58;102597.34;;;8.05;56.13
7264;BME280;3673;52.480;13.348;2023-02-15T04:16:47;102581.78;;;8.07;56.18
7264;BME280;3673;52.480;13.348;2023-02-15T04:19:13;102573.34;;;7.92;56.13
7264;BME280;3673;52.480;13.348;2023-02-15T04:21:58;102561.56;;;7.79;56.58
7264;BME280;3673;52.480;13.348;2023-02-15T04:24:44;102567.13;;;7.66;56.58
7264;BME280;3673;52.480;13.348;2023-02-15T04:27:29;102577.97;;;7.76;56.63
7264;BME280;3673;52.480;13.348;2023-02-15T04:29:56;102564.88;;;7.75;56.90
7264;BME280;3673;52.480;13.348;2023-02-15T04:32:22;102583.47;;;7.84;56.35
7264;BME280;3673;52.480;13.348;2023-02-15T04:34:49;102581.75;;;7.85;56.06
7264;BME280;3673;52.480;13.348;2023-02-15T04:37:16;102584.13;;;7.78;56.44
7264;BME280;3673;52.480;13.348;2023-02-15T04:39:45;102569.47;;;7.60;56.39
7264;BME280;3673;52.480;13.348;2023-02-15T04:42:12;102577.78;;;7.51;56.52
7264;BME280;3673;52.480;13.348;2023-02-15T04:44:39;102571.00;;;7.55;56.95
7264;BME280;3673;52.480;13.348;2023-02-15T04:47:06;102554.59;;;7.57;56.93
7264;BME280;3673;52.480;13.348;2023-02-15T04:49:33;102562.03;;;7.69;56.13
7264;BME280;3673;52.480;13.348;2023-02-15T04:52:00;102543.25;;;7.55;56.39
7264;BME280;3673;52.480;13.348;2023-02-15T04:54:27;102558.59;;;7.70;56.35
7264;BME280;3673;52.480;13.348;2023-02-15T04:56:55;102540.53;;;7.32;56.71
7264;BME280;3673;52.480;13.348;2023-02-15T04:59:22;102539.94;;;7.39;56.55
7264;BME280;3673;52.480;13.348;2023-02-15T05:01:49;102534.59;;;7.56;56.52
7264;BME280;3673;52.480;13.348;2023-02-15T05:04:16;102533.03;;;7.39;56.78
7264;BME280;3673;52.480;13.348;2023-02-15T05:06:43;102514.56;;;7.33;56.28
7264;BME280;3673;52.480;13.348;2023-02-15T05:09:11;102507.00;;;7.39;56.29
7264;BME280;3673;52.480;13.348;2023-02-15T05:11:38;102525.72;;;7.31;56.62
7264;BME280;3673;52.480;13.348;2023-02-15T05:14:07;102529.50;;;7.37;56.39
7264;BME280;3673;52.480;13.348;2023-02-15T05:16:34;102521.16;;;7.25;56.21
7264;BME280;3673;52.480;13.348;2023-02-15T05:19:01;102529.09;;;7.28;56.89
7264;BME280;3673;52.480;13.348;2023-02-15T05:21:28;102530.31;;;7.15;57.00
7264;BME280;3673;52.480;13.348;2023-02-15T05:23:55;102528.84;;;7.22;56.88
7264;BME280;3673;52.480;13.348;2023-02-15T05:26:24;102533.72;;;7.14;57.41
7264;BME280;3673;52.480;13.348;2023-02-15T05:29:10;102529.41;;;7.15;56.63
7264;BME280;3673;52.480;13.348;2023-02-15T05:31:38;102519.53;;;7.06;57.32
7264;BME280;3673;52.480;13.348;2023-02-15T05:34:05;102522.59;;;7.17;57.21
7264;BME280;3673;52.480;13.348;2023-02-15T05:36:32;102532.47;;;6.65;58.01
7264;BME280;3673;52.480;13.348;2023-02-15T05:39:00;102511.59;;;6.44;58.75
7264;BME280;3673;52.480;13.348;2023-02-15T05:41:29;102524.16;;;6.53;58.36
7264;BME280;3673;52.480;13.348;2023-02-15T05:43:56;102513.81;;;6.35;58.71
7264;BME280;3673;52.480;13.348;2023-02-15T05:46:27;102525.38;;;6.42;58.56
7264;BME280;3673;52.480;13.348;2023-02-15T05:49:09;102518.06;;;6.52;58.83
7264;BME280;3673;52.480;13.348;2023-02-15T05:51:50;102498.47;;;6.81;58.34
7264;BME280;3673;52.480;13.348;2023-02-15T05:54:20;102518.50;;;7.03;57.59
7264;BME280;3673;52.480;13.348;2023-02-15T05:56:48;102508.47;;;7.12;57.59
7264;BME280;3673;52.480;13.348;2023-02-15T05:59:15;102499.19;;;6.98;57.24
7264;BME280;3673;52.480;13.348;2023-02-15T06:01:43;102508.59;;;6.73;58.14
7264;BME280;3673;52.480;13.348;2023-02-15T06:04:10;102491.09;;;6.31;58.99
7264;BME280;3673;52.480;13.348;2023-02-15T06:06:37;102513.41;;;6.45;59.01
7264;BME280;3673;52.480;13.348;2023-02-15T06:09:04;102510.13;;;6.49;58.79
7264;BME280;3673;52.480;13.348;2023-02-15T06:11:31;102518.78;;;6.31;59.02
7264;BME280;3673;52.480;13.348;2023-02-15T06:13:58;102501.91;;;6.02;59.97
7264;BME280;3673;52.480;13.348;2023-02-15T06:16:26;102516.06;;;6.08;60.19
7264;BME280;3673;52.480;13.348;2023-02-15T06:18:55;102497.72;;;5.86;60.44
7264;BME280;3673;52.480;13.348;2023-02-15T06:21:22;102516.06;;;6.08;60.25
7264;BME280;3673;52.480;13.348;2023-02-15T06:23:49;102509.44;;;6.15;60.40
7264;BME280;3673;52.480;13.348;2023-02-15T06:26:17;102513.06;;;6.18;60.38
7264;BME280;3673;52.480;13.348;2023-02-15T06:28:44;102502.94;;;6.25;59.81
7264;BME280;3673;52.480;13.348;2023-02-15T06:31:11;102516.94;;;6.28;60.67
7264;BME280;3673;52.480;13.348;2023-02-15T06:33:38;102505.84;;;6.51;59.27
7264;BME280;3673;52.480;13.348;2023-02-15T06:36:07;102490.25;;;5.94;60.64
7264;BME280;3673;52.480;13.348;2023-02-15T06:38:34;102510.06;;;6.09;60.49
7264;BME280;3673;52.480;13.348;2023-02-15T06:41:01;102513.31;;;6.25;60.54
7264;BME280;3673;52.480;13.348;2023-02-15T06:43:28;102487.19;;;6.21;59.79
7264;BME280;3673;52.480;13.348;2023-02-15T06:45:55;102493.97;;;6.18;60.42
7264;BME280;3673;52.480;13.348;2023-02-15T06:48:22;102501.34;;;6.28;60.20
7264;BME280;3673;52.480;13.348;2023-02-15T06:50:49;102501.97;;;6.42;59.59
7264;BME280;3673;52.480;13.348;2023-02-15T06:53:18;102490.69;;;5.85;60.35
7264;BME280;3673;52.480;13.348;2023-02-15T06:55:44;102498.94;;;5.94;61.01
7264;BME280;3673;52.480;13.348;2023-02-15T06:58:11;102502.38;;;6.12;60.58
7264;BME280;3673;52.480;13.348;2023-02-15T07:00:38;102502.31;;;6.11;60.79
7264;BME280;3673;52.480;13.348;2023-02-15T07:03:05;102503.84;;;5.88;60.61
7264;BME280;3673;52.480;13.348;2023-02-15T07:05:33;102499.25;;;5.83;61.27
7264;BME280;3673;52.480;13.348;2023-02-15T07:08:00;102492.75;;;5.55;61.69
7264;BME280;3673;52.480;13.348;2023-02-15T07:10:29;102501.75;;;5.81;61.38
7264;BME280;3673;52.480;13.348;2023-02-15T07:12:56;102500.00;;;5.80;61.69
7264;BME280;3673;52.480;13.348;2023-02-15T07:15:22;102497.25;;;5.95;60.94
7264;BME280;3673;52.480;13.348;2023-02-15T07:17:49;102485.38;;;5.82;61.32
7264;BME280;3673;52.480;13.348;2023-02-15T07:20:18;102492.81;;;6.11;60.80
7264;BME280;3673;52.480;13.348;2023-02-15T07:22:46;102491.81;;;6.27;60.29
7264;BME280;3673;52.480;13.348;2023-02-15T07:25:13;102477.56;;;6.19;60.16
7264;BME280;3673;52.480;13.348;2023-02-15T07:27:41;102467.84;;;6.15;60.53
7264;BME280;3673;52.480;13.348;2023-02-15T07:30:12;102477.97;;;6.09;60.79
7264;BME280;3673;52.480;13.348;2023-02-15T07:32:39;102473.69;;;6.09;60.26
7264;BME280;3673;52.480;13.348;2023-02-15T07:35:26;102477.22;;;6.11;60.58
7264;BME280;3673;52.480;13.348;2023-02-15T07:37:54;102468.53;;;5.92;60.43
7264;BME280;3673;52.480;13.348;2023-02-15T07:40:21;102472.50;;;5.66;61.03
7264;BME280;3673;52.480;13.348;2023-02-15T07:42:50;102473.03;;;5.59;61.11
7264;BME280;3673;52.480;13.348;2023-02-15T07:45:20;102468.91;;;5.64;61.54
7264;BME280;3673;52.480;13.348;2023-02-15T07:47:47;102478.34;;;5.62;61.67
7264;BME280;3673;52.480;13.348;2023-02-15T07:50:14;102472.28;;;5.81;61.59
7264;BME280;3673;52.480;13.348;2023-02-15T07:52:41;102462.47;;;5.74;61.34
7264;BME280;3673;52.480;13.348;2023-02-15T07:55:08;102461.88;;;5.61;61.47
7264;BME280;3673;52.480;13.348;2023-02-15T07:57:41;102456.78;;;5.63;62.29
7264;BME280;3673;52.480;13.348;2023-02-15T08:00:12;102460.28;;;5.63;61.77
7264;BME280;3673;52.480;13.348;2023-02-15T08:02:39;102457.31;;;5.38;62.56
7264;BME280;3673;52.480;13.348;2023-02-15T08:05:07;102459.41;;;5.45;62.16
7264;BME280;3673;52.480;13.348;2023-02-15T08:07:33;102453.00;;;5.56;62.19
7264;BME280;3673;52.480;13.348;2023-02-15T08:10:00;102461.00;;;5.98;61.48
7264;BME280;3673;52.480;13.348;2023-02-15T08:12:27;102451.38;;;6.34;60.25
7264;BME280;3673;52.480;13.348;2023-02-15T08:14:54;102439.41;;;6.18;59.95
7264;BME280;3673;52.480;13.348;2023-02-15T08:17:23;102449.03;;;6.40;59.41
7264;BME280;3673;52.480;13.348;2023-02-15T08:19:49;102439.16;;;6.52;59.49
7264;BME280;3673;52.480;13.348;2023-02-15T08:22:16;102452.97;;;6.51;59.49
7264;BME280;3673;52.480;13.348;2023-02-15T08:24:43;102446.09;;;6.32;59.69
7264;BME280;3673;52.480;13.348;2023-02-15T08:27:11;102446.78;;;6.68;59.23
7264;BME280;3673;52.480;13.348;2023-02-15T08:29:38;102443.53;;;6.53;59.28
7264;BME280;3673;52.480;13.348;2023-02-15T08:32:09;102440.03;;;6.52;59.12
7264;BME280;3673;52.480;13.348;2023-02-15T08:34:41;102439.38;;;6.37;59.15
7264;BME280;3673;52.480;13.348;2023-02-15T08:37:08;102434.47;;;6.24;60.52
7264;BME280;3673;52.480;13.348;2023-02-15T08:39:35;102451.78;;;6.04;60.18
7264;BME280;3673;52.480;13.348;2023-02-15T08:42:02;102443.28;;;6.28;60.30
7264;BME280;3673;52.480;13.348;2023-02-15T08:44:29;102431.78;;;6.42;59.58
7264;BME280;3673;52.480;13.348;2023-02-15T08:46:56;102428.75;;;6.52;59.90
7264;BME280;3673;52.480;13.348;2023-02-15T08:49:28;102427.81;;;6.70;59.66
7264;BME280;3673;52.480;13.348;2023-02-15T08:51:56;102414.31;;;6.18;60.73
7264;BME280;3673;52.480;13.348;2023-02-15T08:54:23;102417.16;;;6.25;60.91
7264;BME280;3673;52.480;13.348;2023-02-15T08:56:50;102421.59;;;6.46;60.24
7264;BME280;3673;52.480;13.348;2023-02-15T08:59:19;102417.03;;;6.82;59.90
7264;BME280;3673;52.480;13.348;2023-02-15T09:01:47;102406.72;;;6.84;59.72
7264;BME280;3673;52.480;13.348;2023-02-15T09:04:14;102406.72;;;6.84;59.68
7264;BME280;3673;52.480;13.348;2023-02-15T09:06:43;102392.94;;;7.08;58.92
7264;BME280;3673;52.480;13.348;2023-02-15T09:09:12;102400.63;;;7.05;58.65
7264;BME280;3673;52.480;13.348;2023-02-15T09:11:41;102397.19;;;7.27;57.98
7264;BME280;3673;52.480;13.348;2023-02-15T09:14:10;102392.84;;;7.28;58.29
7264;BME280;3673;52.480;13.348;2023-02-15T09:16:41;102405.34;;;7.36;58.21
7264;BME280;3673;52.480;13.348;2023-02-15T09:19:10;102402.31;;;7.48;58.19
7264;BME280;3673;52.480;13.348;2023-02-15T09:21:38;102401.59;;;7.52;57.71
7264;BME280;3673;52.480;13.348;2023-02-15T09:24:07;102405.84;;;7.72;57.55
7264;BME280;3673;52.480;13.348;2023-02-15T09:26:39;102398.94;;;7.50;57.54
7264;BME280;3673;52.480;13.348;2023-02-15T09:29:07;102407.91;;;7.58;57.50
7264;BME280;3673;52.480;13.348;2023-02-15T09:31:38;102406.28;;;7.84;57.54
7264;BME280;3673;52.480;13.348;2023-02-15T09:34:06;102390.03;;;7.91;57.62
7264;BME280;3673;52.480;13.348;2023-02-15T09:36:35;102394.25;;;8.11;56.86
7264;BME280;3673;52.480;13.348;2023-02-15T09:39:08;102388.63;;;7.99;56.98
7264;BME280;3673;52.480;13.348;2023-02-15T09:42:06;102403.84;;;8.12;56.60
7264;BME280;3673;52.480;13.348;2023-02-15T09:45:00;102397.75;;;7.88;57.48
7264;BME280;3673;52.480;13.348;2023-02-15T09:48:11;102412.19;;;7.56;58.20
7264;BME280;3673;52.480;13.348;2023-02-15T09:50:53;102404.78;;;7.67;58.07
7264;BME280;3673;52.480;13.348;2023-02-15T09:53:41;102394.75;;;8.01;58.06
7264;BME280;3673;52.480;13.348;2023-02-15T09:56:18;102393.59;;;8.17;57.10
7264;BME280;3673;52.480;13.348;2023-02-15T09:58:57;102389.50;;;8.23;56.78
7264;BME280;3673;52.480;13.348;2023-02-15T10:01:31;102381.00;;;7.82;57.81
7264;BME280;3673;52.480;13.348;2023-02-15T10:04:21;102384.50;;;8.30;56.69
7264;BME280;3673;52.480;13.348;2023-02-15T10:07:05;102384.56;;;8.56;56.10
7264;BME280;3673;52.480;13.348;2023-02-15T10:09:49;102381.66;;;8.23;56.32
7264;BME280;3673;52.480;13.348;2023-02-15T10:12:55;102384.78;;;8.13;57.00
7264;BME280;3673;52.480;13.348;2023-02-15T10:15:37;102386.56;;;8.63;55.95
7264;BME280;3673;52.480;13.348;2023-02-15T10:18:26;102380.81;;;8.48;55.92
7264;BME280;3673;52.480;13.348;2023-02-15T10:20:59;102389.09;;;8.89;55.44
7264;BME280;3673;52.480;13.348;2023-02-15T10:23:55;102377.69;;;8.33;56.23
7264;BME280;3673;52.480;13.348;2023-02-15T10:26:33;102366.94;;;8.49;56.42
7264;BME280;3673;52.480;13.348;2023-02-15T10:29:09;102360.06;;;8.27;57.04
7264;BME280;3673;52.480;13.348;2023-02-15T10:31:48;102361.13;;;8.85;55.75
7264;BME280;3673;52.480;13.348;2023-02-15T10:34:20;102364.81;;;9.18;55.18
7264;BME280;3673;52.480;13.348;2023-02-15T10:37:10;102362.22;;;8.91;55.11
7264;BME280;3673;52.480;13.348;2023-02-15T10:39:52;102349.19;;;9.19;55.15
7264;BME280;3673;52.480;13.348;2023-02-15T10:42:33;102349.69;;;9.08;55.10
7264;BME280;3673;52.480;13.348;2023-02-15T10:45:16;102347.41;;;8.63;56.08
7264;BME280;3673;52.480;13.348;2023-02-15T10:48:32;102350.47;;;8.50;56.74
7264;BME280;3673;52.480;13.348;2023-02-15T10:51:04;102339.78;;;8.69;56.54
7264;BME280;3673;52.480;13.348;2023-02-15T10:53:55;102335.19;;;8.62;55.83
7264;BME280;3673;52.480;13.348;2023-02-15T10:56:34;102342.69;;;8.78;56.25
7264;BME280;3673;52.480;13.348;2023-02-15T10:59:22;102345.00;;;8.96;56.20
7264;BME280;3673;52.480;13.348;2023-02-15T11:02:00;102340.63;;;9.53;54.67
7264;BME280;3673;52.480;13.348;2023-02-15T11:04:45;102334.25;;;9.73;54.26
7264;BME280;3673;52.480;13.348;2023-02-15T11:07:20;102336.81;;;9.72;54.15
7264;BME280;3673;52.480;13.348;2023-02-15T11:09:53;102324.16;;;9.56;54.81
7264;BME280;3673;52.480;13.348;2023-02-15T11:12:28;102315.16;;;9.76;54.30
7264;BME280;3673;52.480;13.348;2023-02-15T11:15:00;102316.63;;;9.66;54.50
7264;BME280;3673;52.480;13.348;2023-02-15T11:17:35;102312.59;;;10.10;53.48
7264;BME280;3673;52.480;13.348;2023-02-15T11:20:17;102312.53;;;10.40;52.95
7264;BME280;3673;52.480;13.348;2023-02-15T11:22:49;102312.19;;;10.28;53.06
7264;BME280;3673;52.480;13.348;2023-02-15T11:25:19;102298.50;;;9.72;53.90
7264;BME280;3673;52.480;13.348;2023-02-15T11:27:50;102298.44;;;10.02;53.83
7264;BME280;3673;52.480;13.348;2023-02-15T11:30:22;102296.78;;;10.06;53.70
7264;BME280;3673;52.480;13.348;2023-02-15T11:32:52;102294.16;;;10.37;53.17
7264;BME280;3673;52.480;13.348;2023-02-15T11:35:27;102295.00;;;10.38;53.19
7264;BME280;3673;52.480;13.348;2023-02-15T11:38:01;102289.16;;;10.48;52.69
7264;BME280;3673;52.480;13.348;2023-02-15T11:40:35;102289.47;;;10.61;52.68
7264;BME280;3673;52.480;13.348;2023-02-15T11:43:10;102281.06;;;10.74;52.69
7264;BME280;3673;52.480;13.348;2023-02-15T11:45:41;102274.59;;;10.96;51.74
7264;BME280;3673;52.480;13.348;2023-02-15T11:48:12;102281.19;;;10.79;52.32
7264;BME280;3673;52.480;13.348;2023-02-15T11:50:42;102274.91;;;10.72;52.94
7264;BME280;3673;52.480;13.348;2023-02-15T11:53:12;102279.41;;;10.78;52.27
7264;BME280;3673;52.480;13.348;2023-02-15T11:55:42;102273.06;;;11.06;51.59
7264;BME280;3673;52.480;13.348;2023-02-15T11:58:28;102273.56;;;11.30;50.98
7264;BME280;3673;52.480;13.348;2023-02-15T12:01:01;102264.44;;;11.53;50.66
7264;BME280;3673;52.480;13.348;2023-02-15T12:03:43;102262.50;;;11.45;50.92
7264;BME280;3673;52.480;13.348;2023-02-15T12:06:20;102261.56;;;11.84;50.47
7264;BME280;3673;52.480;13.348;2023-02-15T12:08:56;102267.78;;;11.91;50.32
7264;BME280;3673;52.480;13.348;2023-02-15T12:11:32;102263.38;;;11.88;50.26
7264;BME280;3673;52.480;13.348;2023-02-15T12:14:03;102263.78;;;12.10;49.59
7264;BME280;3673;52.480;13.348;2023-02-15T12:16:40;102262.31;;;12.27;49.39
7264;BME280;3673;52.480;13.348;2023-02-15T12:19:28;102263.97;;;12.22;49.54
7264;BME280;3673;52.480;13.348;2023-02-15T12:21:59;102258.72;;;12.20;49.39
7264;BME280;3673;52.480;13.348;2023-02-15T12:24:30;102249.38;;;12.39;49.16
7264;BME280;3673;52.480;13.348;2023-02-15T12:27:02;102247.72;;;12.44;48.97
7264;BME280;3673;52.480;13.348;2023-02-15T12:29:34;102244.84;;;12.29;49.34
7264;BME280;3673;52.480;13.348;2023-02-15T12:32:03;102232.25;;;12.61;48.64
7264;BME280;3673;52.480;13.348;2023-02-15T12:34:32;102231.09;;;12.45;48.70
7264;BME280;3673;52.480;13.348;2023-02-15T12:37:15;102230.84;;;12.27;49.10
7264;BME280;3673;52.480;13.348;2023-02-15T12:39:53;102227.38;;;12.89;48.43
7264;BME280;3673;52.480;13.348;2023-02-15T12:42:20;102228.28;;;12.91;48.03
7264;BME280;3673;52.480;13.348;2023-02-15T12:44:59;102222.19;;;12.96;47.90
7264;BME280;3673;52.480;13.348;2023-02-15T12:47:27;102214.25;;;12.89;48.14
7264;BME280;3673;52.480;13.348;2023-02-15T12:50:12;102209.81;;;13.56;46.87
7264;BME280;3673;52.480;13.348;2023-02-15T12:52:46;102206.41;;;13.66;46.59
7264;BME280;3673;52.480;13.348;2023-02-15T12:55:23;102205.34;;;13.49;46.89
7264;BME280;3673;52.480;13.348;2023-02-15T12:58:12;102196.16;;;13.93;46.29
7264;BME280;3673;52.480;13.348;2023-02-15T13:00:42;102192.28;;;14.61;44.96
7264;BME280;3673;52.480;13.348;2023-02-15T13:03:17;102187.22;;;15.03;44.02
7264;BME280;3673;52.480;13.348;2023-02-15T13:05:48;102174.91;;;15.08;43.25
7264;BME280;3673;52.480;13.348;2023-02-15T13:08:22;102184.81;;;15.83;41.74
7264;BME280;3673;52.480;13.348;2023-02-15T13:10:56;102188.31;;;15.91;41.36
7264;BME280;3673;52.480;13.348;2023-02-15T13:13:26;102177.75;;;15.72;41.89
7264;BME280;3673;52.480;13.348;2023-02-15T13:15:56;102173.22;;;15.31;42.37
7264;BME280;3673;52.480;13.348;2023-02-15T13:18:31;102172.38;;;15.37;42.76
7264;BME280;3673;52.480;13.348;2023-02-15T13:21:06;102162.78;;;15.63;42.29
7264;BME280;3673;52.480;13.348;2023-02-15T13:23:37;102163.69;;;15.61;41.79
7264;BME280;3673;52.480;13.348;2023-02-15T13:26:09;102154.00;;;15.66;41.86
7264;BME280;3673;52.480;13.348;2023-02-15T13:28:42;102152.25;;;15.66;42.15
7264;BME280;3673;52.480;13.348;2023-02-15T13:31:14;102154.00;;;15.85;41.85
7264;BME280;3673;52.480;13.348;2023-02-15T13:33:45;102153.06;;;16.29;40.94
7264;BME280;3673;52.480;13.348;2023-02-15T13:36:18;102146.53;;;17.33;39.10
7264;BME280;3673;52.480;13.348;2023-02-15T13:38:59;102146.91;;;18.03;37.44
7264;BME280;3673;52.480;13.348;2023-02-15T13:41:34;102134.28;;;18.29;37.11
7264;BME280;3673;52.480;13.348;2023-02-15T13:44:14;102134.66;;;18.75;35.87
7264;BME280;3673;52.480;13.348;2023-02-15T13:46:59;102131.56;;;19.10;35.73
7264;BME280;3673;52.480;13.348;2023-02-15T13:49:43;102129.88;;;19.03;35.49
7264;BME280;3673;52.480;13.348;2023-02-15T13:52:20;102127.94;;;19.16;35.20